createdAt,value
2018-02-23T00:00:32.926Z,19.88
2018-02-23T00:02:58.914Z,19.86
2018-02-23T00:05:24.882Z,19.85
2018-02-23T00:07:50.833Z,19.86
2018-02-23T00:10:17.108Z,19.84
2018-02-23T00:12:43.074Z,19.81
2018-02-23T00:15:09.023Z,19.79
2018-02-23T00:17:35.206Z,19.85
2018-02-23T00:20:01.166Z,19.83
2018-02-23T00:22:27.144Z,19.82
2018-02-23T00:24:53.109Z,19.78
2018-02-23T00:27:19.098Z,19.81
2018-02-23T00:29:45.064Z,19.81
2018-02-23T00:32:11.030Z,19.78
2018-02-23T00:34:36.996Z,19.81
2018-02-23T00:37:02.981Z,19.81
2018-02-23T00:39:28.947Z,19.79
2018-02-23T00:41:54.935Z,19.73
2018-02-23T00:44:21.027Z,19.76
2018-02-23T00:46:47.026Z,19.78
2018-02-23T00:49:13.066Z,19.80
2018-02-23T00:51:39.118Z,19.85
2018-02-23T00:54:05.947Z,19.77
2018-02-23T00:56:31.919Z,19.75
2018-02-23T00:58:57.898Z,19.74
2018-02-23T01:01:23.913Z,19.74
2018-02-23T01:03:49.865Z,19.73
2018-02-23T01:06:16.026Z,19.70
2018-02-23T01:08:42.007Z,19.71
2018-02-23T01:11:07.958Z,19.70
2018-02-23T01:13:33.923Z,19.74
2018-02-23T01:15:59.898Z,19.72
2018-02-23T01:18:25.870Z,19.69
2018-02-23T01:20:51.857Z,19.65
2018-02-23T01:23:17.839Z,19.69
2018-02-23T01:25:43.786Z,19.65
2018-02-23T01:28:09.754Z,19.59
2018-02-23T01:30:35.699Z,19.70
2018-02-23T01:33:01.652Z,19.70
2018-02-23T01:35:27.614Z,19.62
2018-02-23T01:37:53.595Z,19.66
2018-02-23T01:40:19.573Z,19.63
2018-02-23T01:42:45.533Z,19.64
2018-02-23T01:45:11.510Z,19.69
2018-02-23T01:47:37.480Z,19.67
2018-02-23T01:50:03.404Z,19.65
2018-02-23T01:52:29.369Z,19.63
2018-02-23T01:54:55.323Z,19.62
2018-02-23T01:57:21.306Z,19.58
2018-02-23T01:59:47.249Z,19.57
2018-02-23T02:02:13.185Z,19.59
2018-02-23T02:04:39.143Z,19.52
2018-02-23T02:07:06.109Z,19.59
2018-02-23T02:09:32.075Z,19.52
2018-02-23T02:11:58.031Z,19.58
2018-02-23T02:14:23.982Z,19.59
2018-02-23T02:16:49.946Z,19.59
2018-02-23T02:19:15.888Z,19.53
2018-02-23T02:21:41.870Z,19.58
2018-02-23T02:24:07.811Z,19.59
2018-02-23T02:26:33.805Z,19.59
2018-02-23T02:28:59.767Z,19.58
2018-02-23T02:31:25.738Z,19.60
2018-02-23T02:33:51.711Z,19.52
2018-02-23T02:36:17.674Z,19.54
2018-02-23T02:38:43.669Z,19.61
2018-02-23T02:41:09.638Z,19.55
2018-02-23T02:43:35.695Z,19.49
2018-02-23T02:46:01.670Z,19.54
2018-02-23T02:48:27.629Z,19.49
2018-02-23T02:50:53.700Z,19.46
2018-02-23T02:53:19.683Z,19.44
2018-02-23T02:55:45.683Z,19.54
2018-02-23T02:58:11.674Z,19.46
2018-02-23T03:00:37.656Z,19.47
2018-02-23T03:03:03.632Z,19.44
2018-02-23T03:05:29.613Z,19.45
2018-02-23T03:07:55.584Z,19.45
2018-02-23T03:10:21.718Z,19.44
2018-02-23T03:12:47.667Z,19.51
2018-02-23T03:15:13.708Z,19.47
2018-02-23T03:17:39.670Z,19.46
2018-02-23T03:20:05.646Z,19.38
2018-02-23T03:22:31.620Z,19.44
2018-02-23T03:24:58.449Z,19.42
2018-02-23T03:27:24.386Z,19.41
2018-02-23T03:29:50.349Z,19.45
2018-02-23T03:32:16.313Z,19.47
2018-02-23T03:34:42.304Z,19.38
2018-02-23T03:37:08.288Z,19.36
2018-02-23T03:39:34.246Z,19.42
2018-02-23T03:42:00.230Z,19.65
2018-02-23T03:44:26.197Z,19.76
2018-02-23T03:46:52.331Z,19.83
2018-02-23T03:49:18.504Z,19.95
2018-02-23T03:51:44.475Z,20.06
2018-02-23T03:54:10.434Z,19.98
2018-02-23T03:56:36.457Z,19.96
2018-02-23T03:59:02.345Z,19.99
2018-02-23T04:01:28.295Z,20.09
2018-02-23T04:03:54.269Z,20.06
2018-02-23T04:06:20.235Z,20.00
2018-02-23T04:08:46.326Z,20.01
2018-02-23T04:11:12.280Z,20.08
2018-02-23T04:13:38.223Z,20.13
2018-02-23T04:16:04.169Z,20.10
2018-02-23T04:18:30.121Z,20.15
2018-02-23T04:20:56.092Z,20.27
2018-02-23T04:23:22.083Z,20.22
2018-02-23T04:25:48.061Z,20.11
2018-02-23T04:28:14.027Z,20.12
2018-02-23T04:30:40.076Z,20.31
2018-02-23T04:33:06.037Z,20.18
2018-02-23T04:35:32.008Z,20.12
2018-02-23T04:37:57.981Z,20.30
2018-02-23T04:40:24.042Z,20.29
2018-02-23T04:42:49.985Z,20.27
2018-02-23T04:45:15.957Z,20.21
2018-02-23T04:47:41.917Z,20.27
2018-02-23T04:50:07.870Z,20.23
2018-02-23T04:52:33.860Z,20.18
2018-02-23T04:54:59.806Z,20.26
2018-02-23T04:57:25.775Z,20.24
2018-02-23T04:59:51.744Z,20.19
2018-02-23T05:02:17.695Z,20.20
2018-02-23T05:04:43.678Z,20.29
2018-02-23T05:07:09.642Z,20.28
2018-02-23T05:09:35.625Z,20.31
2018-02-23T05:12:01.570Z,20.27
2018-02-23T05:14:27.525Z,20.34
2018-02-23T05:16:53.486Z,20.40
2018-02-23T05:19:19.457Z,20.38
2018-02-23T05:21:45.445Z,20.39
2018-02-23T05:24:11.412Z,20.35
2018-02-23T05:26:37.377Z,20.37
2018-02-23T05:29:03.326Z,20.31
2018-02-23T05:31:29.308Z,20.35
2018-02-23T05:33:55.275Z,20.40
2018-02-23T05:36:21.260Z,20.36
2018-02-23T05:38:47.221Z,20.33
2018-02-23T05:41:13.174Z,20.26
2018-02-23T05:43:39.253Z,20.20
2018-02-23T05:46:05.226Z,20.27
2018-02-23T05:48:31.217Z,20.21
2018-02-23T05:50:57.223Z,20.18
2018-02-23T05:53:23.192Z,20.23
2018-02-23T05:55:49.150Z,20.14
2018-02-23T05:58:15.129Z,20.16
2018-02-23T06:00:41.092Z,20.14
2018-02-23T06:03:07.046Z,20.09
2018-02-23T06:05:33.012Z,20.12
2018-02-23T06:07:58.993Z,20.12
2018-02-23T06:10:24.945Z,20.22
2018-02-23T06:12:50.941Z,20.39
2018-02-23T06:15:16.918Z,20.44
2018-02-23T06:17:42.889Z,20.35
2018-02-23T06:20:08.869Z,20.35
2018-02-23T06:22:34.848Z,20.31
2018-02-23T06:25:00.797Z,20.30
2018-02-23T06:27:26.747Z,20.25
2018-02-23T06:29:52.733Z,20.22
2018-02-23T06:32:18.709Z,20.17
2018-02-23T06:34:44.677Z,20.22
2018-02-23T06:37:10.702Z,20.20
2018-02-23T06:39:36.652Z,20.18
2018-02-23T06:42:02.674Z,20.19
2018-02-23T06:44:28.659Z,20.12
2018-02-23T06:46:54.623Z,20.11
2018-02-23T06:49:20.622Z,20.23
2018-02-23T06:51:46.593Z,20.33
2018-02-23T06:54:12.552Z,20.35
2018-02-23T06:56:38.512Z,20.39
2018-02-23T06:59:04.465Z,20.35
2018-02-23T07:01:30.436Z,20.31
2018-02-23T07:03:56.397Z,20.34
2018-02-23T07:06:22.351Z,20.30
2018-02-23T07:08:48.330Z,20.31
2018-02-23T07:11:14.330Z,20.26
2018-02-23T07:13:40.262Z,20.22
2018-02-23T07:16:06.241Z,20.19
2018-02-23T07:18:32.246Z,20.20
2018-02-23T07:20:58.287Z,20.21
2018-02-23T07:23:24.252Z,20.15
2018-02-23T07:25:50.220Z,20.14
2018-02-23T07:28:16.244Z,20.16
2018-02-23T07:30:42.211Z,20.22
2018-02-23T07:33:08.187Z,20.30
2018-02-23T07:35:34.176Z,20.35
2018-02-23T07:38:00.170Z,20.36
2018-02-23T07:40:26.126Z,20.43
2018-02-23T07:42:52.107Z,20.35
2018-02-23T07:45:18.065Z,20.34
2018-02-23T07:47:44.038Z,20.37
2018-02-23T07:50:10.017Z,20.30
2018-02-23T07:52:35.965Z,20.32
2018-02-23T07:55:01.938Z,20.25
2018-02-23T07:57:27.930Z,20.25
2018-02-23T07:59:53.910Z,20.21
2018-02-23T08:02:19.870Z,20.32
2018-02-23T08:04:45.841Z,20.31
2018-02-23T08:07:11.783Z,20.30
2018-02-23T08:09:37.761Z,20.21
2018-02-23T08:12:03.748Z,20.28
2018-02-23T08:14:29.702Z,20.33
2018-02-23T08:16:55.684Z,20.26
2018-02-23T08:19:21.678Z,20.19
2018-02-23T08:21:47.651Z,20.33
2018-02-23T08:24:13.629Z,20.41
2018-02-23T08:26:39.593Z,20.49
2018-02-23T08:29:05.580Z,20.53
2018-02-23T08:31:31.532Z,20.46
2018-02-23T08:33:57.505Z,20.40
2018-02-23T08:36:23.465Z,20.42
2018-02-23T08:38:49.419Z,20.41
2018-02-23T08:41:15.471Z,20.38
2018-02-23T08:43:41.452Z,20.38
2018-02-23T08:46:07.436Z,20.40
2018-02-23T08:48:33.381Z,20.39
2018-02-23T08:50:59.384Z,20.40
2018-02-23T08:53:25.334Z,20.37
2018-02-23T08:55:51.309Z,20.41
2018-02-23T08:58:17.294Z,20.38
2018-02-23T09:00:43.260Z,20.41
2018-02-23T09:03:09.293Z,20.40
2018-02-23T09:05:35.246Z,20.42
2018-02-23T09:08:01.235Z,20.47
2018-02-23T09:10:27.230Z,20.41
2018-02-23T09:12:53.251Z,20.35
2018-02-23T09:15:19.230Z,20.34
2018-02-23T09:17:45.184Z,20.40
2018-02-23T09:20:11.173Z,20.52
2018-02-23T09:22:37.146Z,20.63
2018-02-23T09:25:03.111Z,20.63
2018-02-23T09:27:29.054Z,20.64
2018-02-23T09:29:55.038Z,20.55
2018-02-23T09:32:21.013Z,20.62
2018-02-23T09:34:47.149Z,20.68
2018-02-23T09:37:13.131Z,20.57
2018-02-23T09:39:39.130Z,20.50
2018-02-23T09:42:05.122Z,20.45
2018-02-23T09:44:31.085Z,20.50
2018-02-23T09:46:57.061Z,20.46
2018-02-23T09:49:23.030Z,20.47
2018-02-23T09:51:49.038Z,20.49
2018-02-23T09:54:14.994Z,20.42
2018-02-23T09:56:41.073Z,20.47
2018-02-23T09:59:06.986Z,20.45
2018-02-23T10:01:32.970Z,20.47
2018-02-23T10:03:58.925Z,20.47
2018-02-23T10:06:24.911Z,20.52
2018-02-23T10:08:50.879Z,20.51
2018-02-23T10:11:16.846Z,20.50
2018-02-23T10:13:42.808Z,20.55
2018-02-23T10:16:08.781Z,20.56
2018-02-23T10:18:34.755Z,20.52
2018-02-23T10:21:00.737Z,20.47
2018-02-23T10:23:26.726Z,20.54
2018-02-23T10:25:52.706Z,20.55
2018-02-23T10:28:18.692Z,20.51
2018-02-23T10:30:44.636Z,20.61
2018-02-23T10:33:10.635Z,20.65
2018-02-23T10:35:36.585Z,20.58
2018-02-23T10:38:02.604Z,20.54
2018-02-23T10:40:28.538Z,20.56
2018-02-23T10:42:54.508Z,20.60
2018-02-23T10:45:20.480Z,20.58
2018-02-23T10:47:46.460Z,20.66
2018-02-23T10:50:12.406Z,20.63
2018-02-23T10:52:38.365Z,20.74
2018-02-23T10:55:04.346Z,20.63
2018-02-23T10:57:30.352Z,20.79
2018-02-23T10:59:56.339Z,20.72
2018-02-23T11:02:22.296Z,20.86
2018-02-23T11:04:48.284Z,20.72
2018-02-23T11:07:14.278Z,20.71
2018-02-23T11:09:40.247Z,20.67
2018-02-23T11:12:06.235Z,20.65
2018-02-23T11:14:32.173Z,20.67
2018-02-23T11:16:58.141Z,20.64
2018-02-23T11:19:24.093Z,20.56
2018-02-23T11:21:50.075Z,20.62
2018-02-23T11:24:16.058Z,20.58
2018-02-23T11:26:42.018Z,20.55
2018-02-23T11:29:07.991Z,20.54
2018-02-23T11:31:33.971Z,20.46
2018-02-23T11:33:59.938Z,20.46
2018-02-23T11:36:26.070Z,20.47
2018-02-23T11:38:52.057Z,20.59
2018-02-23T11:41:18.041Z,20.63
2018-02-23T11:43:44.017Z,20.52
2018-02-23T11:46:10.010Z,20.52
2018-02-23T11:48:35.966Z,20.50
2018-02-23T11:51:02.032Z,20.50
2018-02-23T11:53:28.001Z,20.50
2018-02-23T11:55:53.973Z,20.47
2018-02-23T11:58:19.958Z,20.60
2018-02-23T12:00:45.943Z,20.56
2018-02-23T12:03:11.915Z,20.52
2018-02-23T12:05:38.107Z,20.52
2018-02-23T12:08:04.054Z,20.56
2018-02-23T12:10:30.013Z,20.64
2018-02-23T12:12:55.995Z,20.54
2018-02-23T12:15:21.942Z,20.54
2018-02-23T12:17:47.929Z,20.55
2018-02-23T12:20:13.924Z,20.53
2018-02-23T12:22:39.896Z,20.51
2018-02-23T12:25:05.854Z,20.45
2018-02-23T12:27:31.807Z,20.51
2018-02-23T12:29:57.781Z,20.50
2018-02-23T12:32:23.736Z,20.51
2018-02-23T12:34:49.714Z,20.52
2018-02-23T12:37:15.709Z,20.49
2018-02-23T12:39:41.674Z,20.53
2018-02-23T12:42:07.626Z,20.50
2018-02-23T12:44:33.631Z,20.50
2018-02-23T12:46:59.583Z,20.49
2018-02-23T12:49:25.554Z,20.52
2018-02-23T12:51:51.535Z,20.46
2018-02-23T12:54:17.507Z,20.48
2018-02-23T12:56:43.466Z,20.50
2018-02-23T12:59:09.430Z,20.55
2018-02-23T13:01:35.390Z,20.53
2018-02-23T13:04:01.365Z,20.52
2018-02-23T13:06:27.323Z,20.61
2018-02-23T13:08:53.284Z,20.59
2018-02-23T13:11:19.265Z,20.60
2018-02-23T13:13:45.262Z,20.57
2018-02-23T13:16:11.245Z,20.59
2018-02-23T13:18:37.207Z,20.66
2018-02-23T13:21:03.196Z,20.65
2018-02-23T13:23:29.172Z,20.62
2018-02-23T13:25:55.130Z,20.66
2018-02-23T13:28:21.122Z,20.69
2018-02-23T13:30:47.084Z,20.72
2018-02-23T13:33:13.070Z,20.66
2018-02-23T13:35:39.052Z,20.62
2018-02-23T13:38:05.038Z,20.68
2018-02-23T13:40:31.018Z,20.68
2018-02-23T13:42:57.020Z,20.65
2018-02-23T13:45:22.983Z,20.61
2018-02-23T13:47:48.993Z,20.58
2018-02-23T13:50:15.067Z,20.65
2018-02-23T13:52:41.033Z,20.63
2018-02-23T13:55:07.016Z,20.62
2018-02-23T13:57:33.020Z,20.56
2018-02-23T13:59:59.000Z,20.51
2018-02-23T14:02:25.000Z,20.54
2018-02-23T14:04:51.010Z,20.56
2018-02-23T14:07:16.999Z,20.53
2018-02-23T14:09:42.989Z,20.58
2018-02-23T14:12:08.995Z,20.65
2018-02-23T14:14:34.946Z,20.57
2018-02-23T14:17:00.911Z,20.65
2018-02-23T14:19:26.890Z,20.62
2018-02-23T14:21:53.008Z,20.53
2018-02-23T14:24:18.946Z,20.56
2018-02-23T14:26:44.943Z,20.48
2018-02-23T14:29:10.950Z,20.64
2018-02-23T14:31:36.918Z,20.62
2018-02-23T14:34:02.894Z,20.61
2018-02-23T14:36:28.842Z,20.57
2018-02-23T14:38:54.811Z,20.68
2018-02-23T14:41:20.785Z,20.61
2018-02-23T14:43:46.770Z,20.56
2018-02-23T14:46:12.765Z,20.51
2018-02-23T14:48:38.722Z,20.58
2018-02-23T14:51:04.695Z,20.59
2018-02-23T14:53:30.663Z,20.54
2018-02-23T14:55:56.642Z,20.60
2018-02-23T14:58:22.604Z,20.56
2018-02-23T15:00:48.591Z,20.61
2018-02-23T15:03:14.561Z,20.57
2018-02-23T15:05:40.544Z,20.62
2018-02-23T15:08:06.518Z,20.52
2018-02-23T15:10:32.498Z,20.60
2018-02-23T15:12:58.481Z,20.58
2018-02-23T15:15:24.447Z,20.52
2018-02-23T15:17:50.396Z,20.50
2018-02-23T15:20:16.350Z,20.51
2018-02-23T15:22:42.302Z,20.54
2018-02-23T15:25:08.295Z,20.49
2018-02-23T15:27:34.266Z,20.46
2018-02-23T15:30:00.245Z,20.52
2018-02-23T15:32:26.194Z,20.58
2018-02-23T15:34:52.359Z,20.56
2018-02-23T15:37:18.328Z,20.56
2018-02-23T15:39:44.310Z,20.48
2018-02-23T15:42:10.276Z,20.47
2018-02-23T15:44:36.240Z,20.47
2018-02-23T15:47:02.215Z,20.41
2018-02-23T15:49:28.177Z,20.40
2018-02-23T15:51:54.186Z,20.44
2018-02-23T15:54:20.160Z,20.47
2018-02-23T15:56:46.154Z,20.46
2018-02-23T15:59:12.128Z,20.42
2018-02-23T16:01:38.092Z,20.47
2018-02-23T16:04:04.050Z,20.49
2018-02-23T16:06:30.019Z,20.51
2018-02-23T16:08:56.005Z,20.47
2018-02-23T16:11:21.990Z,20.57
2018-02-23T16:13:47.968Z,20.51
2018-02-23T16:16:13.947Z,20.53
2018-02-23T16:18:39.932Z,20.56
2018-02-23T16:21:05.926Z,20.55
2018-02-23T16:23:31.895Z,20.48
2018-02-23T16:25:57.856Z,20.51
2018-02-23T16:28:23.828Z,20.73
2018-02-23T16:30:49.801Z,20.45
2018-02-23T16:33:15.772Z,20.45
2018-02-23T16:35:41.734Z,20.48
2018-02-23T16:38:07.721Z,20.48
2018-02-23T16:40:33.687Z,20.53
2018-02-23T16:42:59.893Z,20.52
2018-02-23T16:45:25.850Z,20.51
2018-02-23T16:47:51.853Z,20.45
2018-02-23T16:50:17.839Z,20.54
2018-02-23T16:52:43.824Z,20.52
2018-02-23T16:55:09.809Z,20.56
2018-02-23T16:57:35.762Z,20.51
2018-02-23T17:00:01.741Z,20.52
2018-02-23T17:02:27.747Z,20.51
2018-02-23T17:04:53.709Z,20.47
2018-02-23T17:07:19.705Z,20.48
2018-02-23T17:09:45.676Z,20.53
2018-02-23T17:12:11.664Z,20.47
2018-02-23T17:14:37.617Z,20.46
2018-02-23T17:17:03.668Z,20.51
2018-02-23T17:19:29.643Z,20.50
2018-02-23T17:21:55.630Z,20.48
2018-02-23T17:24:21.633Z,20.48
2018-02-23T17:26:47.624Z,20.46
2018-02-23T17:29:13.578Z,20.47
2018-02-23T17:31:39.615Z,20.48
2018-02-23T17:34:05.586Z,20.42
2018-02-23T17:36:31.581Z,20.50
2018-02-23T17:38:57.626Z,20.58
2018-02-23T17:41:23.592Z,20.55
2018-02-23T17:43:49.580Z,20.52
2018-02-23T17:46:15.582Z,20.56
2018-02-23T17:48:41.582Z,20.63
2018-02-23T17:51:07.576Z,20.54
2018-02-23T17:53:33.543Z,20.48
2018-02-23T17:55:59.565Z,20.52
2018-02-23T17:58:25.547Z,20.52
2018-02-23T18:00:51.526Z,20.53
2018-02-23T18:03:17.581Z,20.58
2018-02-23T18:05:43.555Z,20.44
2018-02-23T18:08:09.529Z,20.49
2018-02-23T18:10:35.547Z,20.51
2018-02-23T18:13:01.519Z,20.57
2018-02-23T18:15:27.497Z,20.62
2018-02-23T18:17:53.480Z,20.66
2018-02-23T18:20:19.454Z,20.74
2018-02-23T18:22:45.441Z,20.68
2018-02-23T18:25:11.404Z,20.66
2018-02-23T18:27:37.386Z,20.62
2018-02-23T18:30:03.418Z,20.64
2018-02-23T18:32:29.447Z,20.70
2018-02-23T18:34:55.399Z,20.64
2018-02-23T18:37:21.406Z,20.66
2018-02-23T18:39:47.398Z,20.72
2018-02-23T18:42:13.388Z,20.74
2018-02-23T18:44:39.375Z,20.73
2018-02-23T18:47:05.333Z,20.67
2018-02-23T18:49:31.310Z,20.74
2018-02-23T18:51:57.313Z,20.69
2018-02-23T18:54:23.290Z,20.71
2018-02-23T18:56:49.325Z,20.71
2018-02-23T18:59:15.330Z,20.74
2018-02-23T19:01:41.266Z,20.76
2018-02-23T19:04:07.246Z,20.75
2018-02-23T19:06:33.217Z,20.76
2018-02-23T19:08:59.169Z,20.73
2018-02-23T19:11:25.128Z,20.82
2018-02-23T19:13:51.095Z,20.76
2018-02-23T19:16:17.079Z,20.73
2018-02-23T19:18:43.118Z,20.68
2018-02-23T19:21:09.113Z,20.74
2018-02-23T19:23:35.091Z,20.76
2018-02-23T19:26:01.050Z,20.84
2018-02-23T19:28:27.079Z,20.80
2018-02-23T19:30:53.052Z,20.90
2018-02-23T19:33:19.049Z,20.85
2018-02-23T19:35:45.047Z,20.77
2018-02-23T19:38:11.001Z,20.76
2018-02-23T19:40:36.984Z,20.84
2018-02-23T19:43:02.978Z,20.83
2018-02-23T19:45:29.058Z,20.83
2018-02-23T19:47:55.009Z,20.76
2018-02-23T19:50:20.986Z,20.74
2018-02-23T19:52:47.025Z,20.79
2018-02-23T19:55:13.044Z,20.90
2018-02-23T19:57:39.044Z,20.84
2018-02-23T20:00:05.181Z,20.86
2018-02-23T20:02:31.177Z,20.84
2018-02-23T20:04:57.142Z,20.87
2018-02-23T20:07:23.172Z,20.88
2018-02-23T20:09:49.171Z,20.84
2018-02-23T20:12:15.151Z,20.85
2018-02-23T20:14:41.119Z,20.85
2018-02-23T20:17:07.170Z,20.86
2018-02-23T20:19:33.150Z,20.89
2018-02-23T20:21:59.127Z,20.87
2018-02-23T20:24:25.281Z,20.82
2018-02-23T20:26:51.343Z,20.83
2018-02-23T20:29:17.855Z,20.85
2018-02-23T20:31:43.951Z,20.84
2018-02-23T20:34:09.944Z,20.76
2018-02-23T20:36:36.034Z,20.77
2018-02-23T20:39:02.015Z,20.71
2018-02-23T20:41:28.114Z,20.83
2018-02-23T20:43:54.158Z,20.79
2018-02-23T20:46:20.289Z,20.80
2018-02-23T20:48:46.372Z,20.76
2018-02-23T20:51:12.387Z,20.74
2018-02-23T20:53:38.527Z,20.83
2018-02-23T20:56:04.546Z,20.70
2018-02-23T20:58:30.728Z,20.76
2018-02-23T21:00:56.832Z,20.78
2018-02-23T21:03:22.826Z,20.70
2018-02-23T21:05:48.785Z,20.73
2018-02-23T21:08:14.776Z,20.75
2018-02-23T21:10:40.770Z,20.77
2018-02-23T21:13:06.781Z,20.69
2018-02-23T21:15:32.738Z,20.71
2018-02-23T21:17:58.714Z,20.71
2018-02-23T21:20:24.800Z,20.69
2018-02-23T21:22:50.788Z,20.66
2018-02-23T21:25:16.759Z,20.64
2018-02-23T21:27:42.885Z,20.62
2018-02-23T21:30:08.857Z,20.52
2018-02-23T21:32:34.817Z,20.53
2018-02-23T21:35:00.812Z,20.53
2018-02-23T21:37:26.786Z,20.52
2018-02-23T21:39:52.800Z,20.50
2018-02-23T21:42:18.741Z,20.50
2018-02-23T21:44:44.852Z,20.47
2018-02-23T21:47:10.833Z,20.45
2018-02-23T21:49:36.813Z,20.48
2018-02-23T21:52:02.940Z,20.42
2018-02-23T21:54:28.909Z,20.54
2018-02-23T21:56:54.891Z,20.42
2018-02-23T21:59:20.897Z,20.36
2018-02-23T22:01:46.913Z,20.46
2018-02-23T22:04:12.893Z,20.29
2018-02-23T22:06:38.857Z,20.30
2018-02-23T22:09:04.862Z,20.24
2018-02-23T22:11:30.880Z,20.24
2018-02-23T22:13:56.823Z,20.29
2018-02-23T22:16:22.777Z,20.32
2018-02-23T22:18:48.796Z,20.30
2018-02-23T22:21:14.788Z,20.32
2018-02-23T22:23:40.755Z,20.34
2018-02-23T22:26:06.714Z,20.23
2018-02-23T22:28:32.717Z,20.21
2018-02-23T22:30:58.720Z,20.25
2018-02-23T22:33:24.752Z,20.24
2018-02-23T22:35:50.787Z,20.23
2018-02-23T22:38:16.742Z,20.20
2018-02-23T22:40:42.706Z,20.19
2018-02-23T22:43:08.710Z,20.19
2018-02-23T22:45:34.691Z,20.18
2018-02-23T22:48:00.690Z,20.17
2018-02-23T22:50:26.660Z,20.15
2018-02-23T22:52:52.638Z,20.10
2018-02-23T22:55:18.613Z,20.12
2018-02-23T22:57:44.605Z,20.08
2018-02-23T23:00:10.561Z,20.10
2018-02-23T23:02:36.539Z,20.15
2018-02-23T23:05:02.488Z,20.07
2018-02-23T23:07:28.437Z,20.15
2018-02-23T23:09:54.409Z,20.05
2018-02-23T23:12:20.490Z,20.05
2018-02-23T23:14:46.453Z,20.08
2018-02-23T23:17:12.426Z,20.06
2018-02-23T23:19:38.400Z,20.03
2018-02-23T23:22:04.370Z,20.01
2018-02-23T23:24:30.330Z,20.00
2018-02-23T23:26:56.301Z,19.99
2018-02-23T23:29:22.271Z,19.96
2018-02-23T23:31:48.237Z,19.96
2018-02-23T23:34:14.206Z,19.95
2018-02-23T23:36:40.215Z,20.01
2018-02-23T23:39:06.183Z,19.99
2018-02-23T23:41:32.178Z,20.02
2018-02-23T23:43:58.102Z,19.98
2018-02-23T23:46:24.062Z,19.93
2018-02-23T23:48:50.014Z,19.96
2018-02-23T23:51:15.955Z,19.88
2018-02-23T23:53:41.955Z,19.90
2018-02-23T23:56:07.909Z,19.93
2018-02-23T23:58:33.934Z,19.98
